createdAt,value
2023-03-11T00:00:49.647Z,14.60
2023-03-11T00:03:18.708Z,14.30
2023-03-11T00:05:47.041Z,15.40
2023-03-11T00:08:21.679Z,16.10
2023-03-11T00:10:55.502Z,15.00
2023-03-11T00:13:27.038Z,15.50
2023-03-11T00:15:56.385Z,15.30
2023-03-11T00:18:31.847Z,15.30
2023-03-11T00:21:00.913Z,15.10
2023-03-11T00:23:29.274Z,16.00
2023-03-11T00:26:00.068Z,15.40
2023-03-11T00:28:30.462Z,15.60
2023-03-11T00:30:59.696Z,15.00
2023-03-11T00:33:29.492Z,15.00
2023-03-11T00:35:59.167Z,16.80
2023-03-11T00:38:28.731Z,15.90
2023-03-11T00:40:56.833Z,14.70
2023-03-11T00:43:25.213Z,15.80
2023-03-11T00:45:53.332Z,14.80
2023-03-11T00:48:23.646Z,16.50
2023-03-11T00:50:53.040Z,14.80
2023-03-11T00:53:25.110Z,14.40
2023-03-11T00:55:53.481Z,15.40
2023-03-11T00:58:27.392Z,14.80
2023-03-11T01:00:57.550Z,13.20
2023-03-11T01:03:26.530Z,13.70
2023-03-11T01:05:56.255Z,13.90
2023-03-11T01:08:27.256Z,14.50
2023-03-11T01:10:58.441Z,13.40
2023-03-11T01:13:29.486Z,13.90
2023-03-11T01:15:57.689Z,12.90
2023-03-11T01:18:26.076Z,13.20
2023-03-11T01:20:55.058Z,13.40
2023-03-11T01:23:23.266Z,13.30
2023-03-11T01:25:51.346Z,12.80
2023-03-11T01:28:20.084Z,13.60
2023-03-11T01:30:48.884Z,13.60
2023-03-11T01:33:18.854Z,12.40
2023-03-11T01:35:47.261Z,11.80
2023-03-11T01:38:16.334Z,11.60
2023-03-11T01:40:49.017Z,12.40
2023-03-11T01:43:37.355Z,12.30
2023-03-11T01:46:31.747Z,11.60
2023-03-11T01:49:01.905Z,10.90
2023-03-11T01:51:42.907Z,11.70
2023-03-11T01:54:23.523Z,10.90
2023-03-11T01:56:53.219Z,11.40
2023-03-11T01:59:25.604Z,11.40
2023-03-11T02:01:56.100Z,10.70
2023-03-11T02:04:24.804Z,11.50
2023-03-11T02:06:56.472Z,12.40
2023-03-11T02:09:27.201Z,11.10
2023-03-11T02:11:56.787Z,11.20
2023-03-11T02:14:25.016Z,12.50
2023-03-11T02:16:57.895Z,11.80
2023-03-11T02:19:38.693Z,11.70
2023-03-11T02:22:06.838Z,10.60
2023-03-11T02:24:43.924Z,10.90
2023-03-11T02:27:17.373Z,10.90
2023-03-11T02:29:49.755Z,11.00
2023-03-11T02:32:18.366Z,10.50
2023-03-11T02:34:46.580Z,11.10
2023-03-11T02:37:16.233Z,10.20
2023-03-11T02:39:50.523Z,10.60
2023-03-11T02:42:24.306Z,11.40
2023-03-11T02:45:00.593Z,10.40
2023-03-11T02:47:29.962Z,10.80
2023-03-11T02:49:59.701Z,10.70
2023-03-11T02:52:28.724Z,10.20
2023-03-11T02:54:58.256Z,10.80
2023-03-11T02:57:26.420Z,11.20
2023-03-11T02:59:55.214Z,11.50
2023-03-11T03:02:23.520Z,10.80
2023-03-11T03:04:55.090Z,11.00
2023-03-11T03:07:24.936Z,10.50
2023-03-11T03:09:53.219Z,10.70
2023-03-11T03:12:21.394Z,10.90
2023-03-11T03:14:51.318Z,10.00
2023-03-11T03:17:20.073Z,10.20
2023-03-11T03:19:48.500Z,10.30
2023-03-11T03:22:18.520Z,9.80
2023-03-11T03:24:47.152Z,11.10
2023-03-11T03:27:15.277Z,11.60
2023-03-11T03:29:44.063Z,10.70
2023-03-11T03:32:17.291Z,10.60
2023-03-11T03:34:46.049Z,10.40
2023-03-11T03:37:14.154Z,11.10
2023-03-11T03:39:43.477Z,10.80
2023-03-11T03:42:12.544Z,11.30
2023-03-11T03:44:41.387Z,11.40
2023-03-11T03:47:09.974Z,10.50
2023-03-11T03:49:38.680Z,10.10
2023-03-11T03:52:07.288Z,11.70
2023-03-11T03:54:35.440Z,10.40
2023-03-11T03:57:04.410Z,10.80
2023-03-11T03:59:33.234Z,11.00
2023-03-11T04:02:04.562Z,12.00
2023-03-11T04:04:33.737Z,11.70
2023-03-11T04:07:04.562Z,11.70
2023-03-11T04:09:33.419Z,11.90
2023-03-11T04:12:02.270Z,12.30
2023-03-11T04:14:31.632Z,11.90
2023-03-11T04:17:04.165Z,12.40
2023-03-11T04:19:33.099Z,12.20
2023-03-11T04:22:01.284Z,12.60
2023-03-11T04:24:30.418Z,11.40
2023-03-11T04:26:58.951Z,12.20
2023-03-11T04:29:27.101Z,12.30
2023-03-11T04:31:56.000Z,11.70
2023-03-11T04:34:36.070Z,11.90
2023-03-11T04:37:05.036Z,12.60
2023-03-11T04:39:35.124Z,14.00
2023-03-11T04:42:04.150Z,12.60
2023-03-11T04:44:35.582Z,13.30
2023-03-11T04:47:09.722Z,13.10
2023-03-11T04:49:40.437Z,12.90
2023-03-11T04:52:09.240Z,13.00
2023-03-11T04:54:37.472Z,12.50
2023-03-11T04:57:06.218Z,12.80
2023-03-11T04:59:36.034Z,13.50
2023-03-11T05:02:05.137Z,13.10
2023-03-11T05:04:33.790Z,12.70
2023-03-11T05:07:02.030Z,13.40
2023-03-11T05:09:31.425Z,12.80
2023-03-11T05:12:02.714Z,12.40
2023-03-11T05:14:34.975Z,14.20
2023-03-11T05:17:05.422Z,13.50
2023-03-11T05:19:40.856Z,13.50
2023-03-11T05:22:17.152Z,13.60
2023-03-11T05:27:39.631Z,12.70
2023-03-11T05:30:16.610Z,14.20
2023-03-11T05:35:33.781Z,14.10
2023-03-11T05:38:08.257Z,14.60
2023-03-11T05:40:39.012Z,14.60
2023-03-11T05:43:11.478Z,14.60
2023-03-11T05:45:41.099Z,15.30
2023-03-11T05:48:09.373Z,15.70
2023-03-11T05:50:38.239Z,15.40
2023-03-11T05:53:07.718Z,15.10
2023-03-11T05:55:36.591Z,16.10
2023-03-11T05:58:06.777Z,16.40
2023-03-11T06:00:37.068Z,16.60
2023-03-11T06:03:19.468Z,15.70
2023-03-11T06:05:49.712Z,15.30
2023-03-11T06:08:19.823Z,14.20
2023-03-11T06:10:49.004Z,15.50
2023-03-11T06:13:18.203Z,14.10
2023-03-11T06:15:56.760Z,14.70
2023-03-11T06:18:35.969Z,14.40
2023-03-11T06:21:11.181Z,14.50
2023-03-11T06:23:47.243Z,14.80
2023-03-11T06:26:21.367Z,13.70
2023-03-11T06:28:52.351Z,13.50
2023-03-11T06:31:31.258Z,13.90
2023-03-11T06:34:14.565Z,14.60
2023-03-11T06:36:47.447Z,13.70
2023-03-11T06:39:17.991Z,15.10
2023-03-11T06:41:49.226Z,15.20
2023-03-11T06:44:18.047Z,15.60
2023-03-11T06:46:51.922Z,14.50
2023-03-11T06:49:23.801Z,14.30
2023-03-11T06:51:52.165Z,15.10
2023-03-11T06:54:20.554Z,14.60
2023-03-11T06:56:59.057Z,15.30
2023-03-11T06:59:29.726Z,14.80
2023-03-11T07:02:04.884Z,14.90
2023-03-11T07:04:33.923Z,14.50
2023-03-11T07:07:09.071Z,14.30
2023-03-11T07:12:30.588Z,14.50
2023-03-11T07:15:02.279Z,10.50
2023-03-11T07:17:38.307Z,14.40
2023-03-11T07:20:23.070Z,15.70
2023-03-11T07:22:51.745Z,15.90
2023-03-11T07:25:25.791Z,14.30
2023-03-11T07:27:54.751Z,16.10
2023-03-11T07:33:09.120Z,16.70
2023-03-11T07:35:40.067Z,16.20
2023-03-11T07:38:08.710Z,15.60
2023-03-11T07:40:37.219Z,15.60
2023-03-11T07:43:05.592Z,16.00
2023-03-11T07:45:35.312Z,15.30
2023-03-11T07:48:04.050Z,16.00
2023-03-11T07:50:33.424Z,16.50
2023-03-11T07:53:01.589Z,16.30
2023-03-11T07:55:32.553Z,16.10
2023-03-11T07:58:01.195Z,16.10
2023-03-11T08:00:29.622Z,14.80
2023-03-11T08:02:57.960Z,16.10
2023-03-11T08:05:26.037Z,15.20
2023-03-11T08:07:54.424Z,15.20
2023-03-11T08:10:24.084Z,15.90
2023-03-11T08:12:54.914Z,15.20
2023-03-11T08:15:23.215Z,16.90
2023-03-11T08:17:52.621Z,16.20
2023-03-11T08:20:21.001Z,14.30
2023-03-11T08:22:57.923Z,16.80
2023-03-11T08:25:27.189Z,16.90
2023-03-11T08:27:55.469Z,15.80
2023-03-11T08:30:23.951Z,17.50
2023-03-11T08:33:03.191Z,17.50
2023-03-11T08:35:32.259Z,21.80
2023-03-11T08:38:01.110Z,21.60
2023-03-11T08:40:30.267Z,23.80
2023-03-11T08:42:58.358Z,25.10
2023-03-11T08:45:27.181Z,24.40
2023-03-11T08:47:55.483Z,26.80
2023-03-11T08:50:24.126Z,27.70
2023-03-11T08:52:52.238Z,28.60
2023-03-11T08:55:25.216Z,31.70
2023-03-11T08:57:53.377Z,31.40
2023-03-11T09:00:22.996Z,29.30
2023-03-11T09:02:51.387Z,28.10
2023-03-11T09:05:19.542Z,28.80
2023-03-11T09:07:49.926Z,28.00
2023-03-11T09:10:18.403Z,25.50
2023-03-11T09:12:47.564Z,24.80
2023-03-11T09:15:16.894Z,26.80
2023-03-11T09:17:45.696Z,23.40
2023-03-11T09:20:14.745Z,21.90
2023-03-11T09:22:43.588Z,21.20
2023-03-11T09:25:12.488Z,18.60
2023-03-11T09:27:45.139Z,18.70
2023-03-11T09:30:14.472Z,17.80
2023-03-11T09:32:43.023Z,18.10
2023-03-11T09:35:13.231Z,18.70
2023-03-11T09:37:41.571Z,18.90
2023-03-11T09:40:13.413Z,20.20
2023-03-11T09:43:04.841Z,18.50
2023-03-11T09:45:35.164Z,19.90
2023-03-11T09:48:04.542Z,20.50
2023-03-11T09:50:48.772Z,20.40
2023-03-11T09:53:37.977Z,21.90
2023-03-11T09:56:08.760Z,21.30
2023-03-11T09:58:53.705Z,24.20
2023-03-11T10:03:51.511Z,24.40
2023-03-11T10:06:24.548Z,23.80
2023-03-11T10:08:59.352Z,24.20
2023-03-11T10:11:57.296Z,28.00
2023-03-11T10:14:31.986Z,26.60
2023-03-11T10:17:17.173Z,26.70
2023-03-11T10:19:51.721Z,28.60
2023-03-11T10:22:32.105Z,21.40
2023-03-11T10:25:05.502Z,28.10
2023-03-11T10:27:50.159Z,29.30
2023-03-11T10:30:33.813Z,29.00
2023-03-11T10:33:33.168Z,27.50
2023-03-11T10:36:05.233Z,26.10
2023-03-11T10:38:35.415Z,26.20
2023-03-11T10:41:06.452Z,25.10
2023-03-11T10:43:40.772Z,26.40
2023-03-11T10:46:20.819Z,27.90
2023-03-11T10:48:49.422Z,29.00
2023-03-11T10:51:24.610Z,29.90
2023-03-11T10:53:54.572Z,24.90
2023-03-11T10:56:42.979Z,25.50
2023-03-11T10:59:26.479Z,25.00
2023-03-11T11:02:01.292Z,22.60
2023-03-11T11:04:30.922Z,25.10
2023-03-11T11:07:00.738Z,25.60
2023-03-11T11:09:31.149Z,26.70
2023-03-11T11:12:02.111Z,25.90
2023-03-11T11:14:44.468Z,28.10
2023-03-11T11:17:19.954Z,29.40
2023-03-11T11:19:51.794Z,28.30
2023-03-11T11:22:21.933Z,28.60
2023-03-11T11:24:51.810Z,29.70
2023-03-11T11:27:28.699Z,29.40
2023-03-11T11:30:08.957Z,31.70
2023-03-11T11:32:38.781Z,30.60
2023-03-11T11:35:16.741Z,28.10
2023-03-11T11:37:54.089Z,28.40
2023-03-11T11:40:29.139Z,26.60
2023-03-11T11:43:06.137Z,26.00
2023-03-11T11:45:36.140Z,26.10
2023-03-11T11:48:19.912Z,25.10
2023-03-11T11:51:21.756Z,25.40
2023-03-11T11:53:55.821Z,25.30
2023-03-11T11:56:25.687Z,26.80
2023-03-11T11:58:54.886Z,25.70
2023-03-11T12:01:40.342Z,24.60
2023-03-11T12:04:27.532Z,22.90
2023-03-11T12:07:01.429Z,23.30
2023-03-11T12:09:58.619Z,16.70
2023-03-11T12:12:37.184Z,24.10
2023-03-11T12:15:08.235Z,24.50
2023-03-11T12:17:38.470Z,25.10
2023-03-11T12:20:24.486Z,26.60
2023-03-11T12:23:08.008Z,25.70
2023-03-11T12:26:03.593Z,25.20
2023-03-11T12:28:40.971Z,24.80
2023-03-11T12:31:10.882Z,25.00
2023-03-11T12:33:50.675Z,24.30
2023-03-11T12:36:35.188Z,24.30
2023-03-11T12:39:07.253Z,25.20
2023-03-11T12:41:42.321Z,22.50
2023-03-11T12:47:19.190Z,23.40
2023-03-11T12:52:58.087Z,21.30
2023-03-11T12:55:36.593Z,20.50
2023-03-11T12:58:30.491Z,22.50
2023-03-11T13:01:17.618Z,21.30
2023-03-11T13:04:09.044Z,22.90
2023-03-11T13:07:01.038Z,21.60
2023-03-11T13:10:04.847Z,22.70
2023-03-11T13:12:40.735Z,23.50
2023-03-11T13:15:22.688Z,22.70
2023-03-11T13:18:14.032Z,23.50
2023-03-11T13:20:51.787Z,22.50
2023-03-11T13:23:22.823Z,23.10
2023-03-11T13:25:55.844Z,23.60
2023-03-11T13:28:46.463Z,23.90
2023-03-11T13:34:53.827Z,24.20
2023-03-11T13:37:50.768Z,23.70
2023-03-11T13:40:39.340Z,24.30
2023-03-11T13:43:12.176Z,24.80
2023-03-11T13:45:41.303Z,25.50
2023-03-11T13:48:45.444Z,29.10
2023-03-11T13:51:44.297Z,24.50
2023-03-11T13:54:20.264Z,22.60
2023-03-11T13:56:55.073Z,22.90
2023-03-11T13:59:24.371Z,22.60
2023-03-11T14:01:54.087Z,21.30
2023-03-11T14:04:29.561Z,22.80
2023-03-11T14:06:58.255Z,20.60
2023-03-11T14:09:32.037Z,22.40
2023-03-11T14:12:07.891Z,20.80
2023-03-11T14:14:51.219Z,21.60
2023-03-11T14:17:27.596Z,20.20
2023-03-11T14:20:07.088Z,21.50
2023-03-11T14:22:35.253Z,21.00
2023-03-11T14:25:08.886Z,20.90
2023-03-11T14:27:38.186Z,20.60
2023-03-11T14:30:06.851Z,19.50
2023-03-11T14:35:21.351Z,19.00
2023-03-11T14:37:53.938Z,19.40
2023-03-11T14:40:25.914Z,19.80
2023-03-11T14:43:01.977Z,18.80
2023-03-11T14:45:32.869Z,17.90
2023-03-11T14:48:17.305Z,17.50
2023-03-11T14:50:49.664Z,17.60
2023-03-11T14:53:22.505Z,16.50
2023-03-11T14:55:51.974Z,16.20
2023-03-11T14:58:24.060Z,17.50
2023-03-11T15:01:01.271Z,16.60
2023-03-11T15:03:39.734Z,16.80
2023-03-11T15:06:15.156Z,15.80
2023-03-11T15:08:46.404Z,16.60
2023-03-11T15:11:15.394Z,15.50
2023-03-11T15:13:46.544Z,15.80
2023-03-11T15:16:26.763Z,15.10
2023-03-11T15:18:54.878Z,15.30
2023-03-11T15:21:28.574Z,15.70
2023-03-11T15:24:06.565Z,16.60
2023-03-11T15:26:35.918Z,14.10
2023-03-11T15:29:13.195Z,16.70
2023-03-11T15:31:46.879Z,15.80
2023-03-11T15:34:18.178Z,16.40
2023-03-11T15:36:50.378Z,17.10
2023-03-11T15:39:29.043Z,17.10
2023-03-11T15:42:02.127Z,16.20
2023-03-11T15:44:42.239Z,16.40
2023-03-11T15:47:18.336Z,17.10
2023-03-11T15:49:46.595Z,18.40
2023-03-11T15:52:14.745Z,18.80
2023-03-11T15:54:47.400Z,18.80
2023-03-11T15:57:25.301Z,19.70
2023-03-11T15:59:56.221Z,19.70
2023-03-11T16:02:26.430Z,19.80
2023-03-11T16:04:55.071Z,20.70
2023-03-11T16:07:38.252Z,22.50
2023-03-11T16:10:08.909Z,23.40
2023-03-11T16:12:44.783Z,23.00
2023-03-11T16:15:24.874Z,24.10
2023-03-11T16:17:55.543Z,25.00
2023-03-11T16:20:32.315Z,24.60
2023-03-11T16:23:01.644Z,25.10
2023-03-11T16:25:35.106Z,24.30
2023-03-11T16:28:03.521Z,26.70
2023-03-11T16:30:33.783Z,24.90
2023-03-11T16:33:05.205Z,24.70
2023-03-11T16:35:34.317Z,24.80
2023-03-11T16:38:04.622Z,23.00
2023-03-11T16:40:40.066Z,23.70
2023-03-11T16:45:40.020Z,22.80
2023-03-11T16:48:08.261Z,23.00
2023-03-11T16:50:40.686Z,23.70
2023-03-11T16:53:11.825Z,23.70
2023-03-11T16:55:51.093Z,22.90
2023-03-11T16:58:19.544Z,22.00
2023-03-11T17:00:53.349Z,21.70
2023-03-11T17:03:22.129Z,22.30
2023-03-11T17:05:53.915Z,20.80
2023-03-11T17:08:27.859Z,20.70
2023-03-11T17:10:56.242Z,21.20
2023-03-11T17:13:28.790Z,19.40
2023-03-11T17:16:00.497Z,19.50
2023-03-11T17:18:45.926Z,19.80
2023-03-11T17:21:15.222Z,17.70
2023-03-11T17:23:45.310Z,17.30
2023-03-11T17:26:16.849Z,17.80
2023-03-11T17:28:46.932Z,17.00
2023-03-11T17:31:18.520Z,17.30
2023-03-11T17:33:49.698Z,16.70
2023-03-11T17:36:18.401Z,19.30
2023-03-11T17:38:53.987Z,18.30
2023-03-11T17:41:22.845Z,19.60
2023-03-11T17:43:54.120Z,20.80
2023-03-11T17:46:26.756Z,21.60
2023-03-11T17:48:57.232Z,20.80
2023-03-11T17:54:10.395Z,20.20
2023-03-11T17:56:42.560Z,19.40
2023-03-11T17:59:11.336Z,19.00
2023-03-11T18:01:44.852Z,20.10
2023-03-11T18:04:20.164Z,20.60
2023-03-11T18:09:46.568Z,19.60
2023-03-11T18:12:28.319Z,19.50
2023-03-11T18:14:58.511Z,20.40
2023-03-11T18:17:30.073Z,23.30
2023-03-11T18:20:00.733Z,21.60
2023-03-11T18:22:35.569Z,21.00
2023-03-11T18:25:12.704Z,21.10
2023-03-11T18:27:41.176Z,21.00
2023-03-11T18:30:16.366Z,21.10
2023-03-11T18:33:02.271Z,22.20
2023-03-11T18:35:35.367Z,20.30
2023-03-11T18:40:59.368Z,19.10
2023-03-11T18:43:42.105Z,19.90
2023-03-11T18:46:20.464Z,19.40
2023-03-11T18:49:16.185Z,19.40
2023-03-11T18:51:56.163Z,19.00
2023-03-11T18:54:40.366Z,19.20
2023-03-11T18:57:27.168Z,19.60
2023-03-11T18:59:59.604Z,21.20
2023-03-11T19:02:33.402Z,22.70
2023-03-11T19:05:04.405Z,22.40
2023-03-11T19:07:37.140Z,22.10
2023-03-11T19:10:09.646Z,21.90
2023-03-11T19:12:44.420Z,23.20
2023-03-11T19:15:14.248Z,23.90
2023-03-11T19:18:00.522Z,25.00
2023-03-11T19:20:34.984Z,23.10
2023-03-11T19:23:03.411Z,25.60
2023-03-11T19:25:33.186Z,24.70
2023-03-11T19:28:01.999Z,26.20
2023-03-11T19:30:33.292Z,27.10
2023-03-11T19:33:02.346Z,28.00
2023-03-11T19:35:31.036Z,28.00
2023-03-11T19:38:06.608Z,29.60
2023-03-11T19:40:36.225Z,30.30
2023-03-11T19:43:05.863Z,28.90
2023-03-11T19:45:35.244Z,26.50
2023-03-11T19:48:04.049Z,26.60
2023-03-11T19:50:33.947Z,29.00
2023-03-11T19:53:02.312Z,27.40
2023-03-11T19:55:30.792Z,23.90
2023-03-11T19:58:01.030Z,23.20
2023-03-11T20:00:30.630Z,19.40
2023-03-11T20:03:02.438Z,20.30
2023-03-11T20:05:31.497Z,19.40
2023-03-11T20:07:59.952Z,17.70
2023-03-11T20:10:33.381Z,17.00
2023-03-11T20:13:04.773Z,18.10
2023-03-11T20:15:33.131Z,15.90
2023-03-11T20:18:06.242Z,16.10
2023-03-11T20:20:35.372Z,15.30
2023-03-11T20:23:04.146Z,16.20
2023-03-11T20:25:40.207Z,15.00
2023-03-11T20:28:09.138Z,15.60
2023-03-11T20:30:38.104Z,14.30
2023-03-11T20:33:07.300Z,16.30
2023-03-11T20:35:37.106Z,18.90
2023-03-11T20:38:05.844Z,19.20
2023-03-11T20:40:35.407Z,23.30
2023-03-11T20:43:04.495Z,22.40
2023-03-11T20:45:33.490Z,21.40
2023-03-11T20:48:02.561Z,21.90
2023-03-11T20:50:31.411Z,21.30
2023-03-11T20:52:59.959Z,25.40
2023-03-11T20:55:28.034Z,23.40
2023-03-11T20:57:56.487Z,20.20
2023-03-11T21:00:30.000Z,19.60
2023-03-11T21:03:00.565Z,19.10
2023-03-11T21:05:29.473Z,15.20
2023-03-11T21:07:57.571Z,13.90
2023-03-11T21:10:26.193Z,12.70
2023-03-11T21:12:56.167Z,11.70
2023-03-11T21:15:26.113Z,11.60
2023-03-11T21:17:56.202Z,9.40
2023-03-11T21:20:25.770Z,10.80
2023-03-11T21:22:54.862Z,10.80
2023-03-11T21:25:28.708Z,9.30
2023-03-11T21:27:57.426Z,10.20
2023-03-11T21:30:27.234Z,10.20
2023-03-11T21:32:55.716Z,9.40
2023-03-11T21:35:24.259Z,9.60
2023-03-11T21:37:54.558Z,9.00
2023-03-11T21:40:23.303Z,8.80
2023-03-11T21:42:51.944Z,9.10
2023-03-11T21:45:20.510Z,8.60
2023-03-11T21:47:49.050Z,9.40
2023-03-11T21:50:26.944Z,8.70
2023-03-11T21:52:57.452Z,7.50
2023-03-11T21:55:25.868Z,8.00
2023-03-11T21:57:54.009Z,7.70
2023-03-11T22:00:23.474Z,7.70
2023-03-11T22:02:52.649Z,7.00
2023-03-11T22:05:21.151Z,7.20
2023-03-11T22:07:49.233Z,6.30
2023-03-11T22:10:18.163Z,7.00
2023-03-11T22:12:49.490Z,6.60
2023-03-11T22:15:18.423Z,5.40
2023-03-11T22:17:48.428Z,5.40
2023-03-11T22:20:17.358Z,5.30
2023-03-11T22:22:45.588Z,5.70
2023-03-11T22:25:17.069Z,5.00
2023-03-11T22:27:46.123Z,4.80
2023-03-11T22:30:14.628Z,4.50
2023-03-11T22:32:44.373Z,4.50
2023-03-11T22:35:13.456Z,4.10
2023-03-11T22:37:41.654Z,3.70
2023-03-11T22:40:10.519Z,3.40
2023-03-11T22:42:39.120Z,3.30
2023-03-11T22:45:08.996Z,3.00
2023-03-11T22:47:38.692Z,2.40
2023-03-11T22:50:07.549Z,2.70
2023-03-11T22:52:36.262Z,3.00
2023-03-11T22:55:05.240Z,2.70
2023-03-11T22:57:39.024Z,3.50
2023-03-11T23:00:17.356Z,2.80
2023-03-11T23:02:46.597Z,3.10
2023-03-11T23:05:15.703Z,2.30
2023-03-11T23:07:43.972Z,2.50
2023-03-11T23:10:13.656Z,2.70
2023-03-11T23:12:45.736Z,2.20
2023-03-11T23:15:18.476Z,2.50
2023-03-11T23:17:46.745Z,2.50
2023-03-11T23:20:15.429Z,3.00
2023-03-11T23:22:43.896Z,2.40
2023-03-11T23:25:14.654Z,3.00
2023-03-11T23:27:44.240Z,3.60
2023-03-11T23:30:13.926Z,3.30
2023-03-11T23:32:45.743Z,3.60
2023-03-11T23:35:13.929Z,3.60
2023-03-11T23:37:41.984Z,3.70
2023-03-11T23:40:10.656Z,3.80
2023-03-11T23:42:39.274Z,3.30
2023-03-11T23:45:08.194Z,3.30
2023-03-11T23:47:37.018Z,3.60
2023-03-11T23:50:06.699Z,3.50
2023-03-11T23:52:36.285Z,4.00
2023-03-11T23:55:04.838Z,4.20
2023-03-11T23:57:35.901Z,4.20
